CYRACYZF

Guest
Details From CYRA - Rae Lakes
To CYZF - YELLOWKNIFE
Flight Number -
Tags generated
Created
Modified
Stats Distance 145 nm / 268 km
Max Altitude 13,100 ft / 3,993 m
Waypoints 3
Social Downloads 0
Likes 0
Share VATSIM

Download

Looking for another format? Having issues loading an existing format? Contact us
Advertisement - Login to hide

Notes

Basic altitude profile: - Ascent Rate: 2500ft/min - Ascent Speed: 250kts - Cruise Altitude: 35000ft - Cruise Speed: 420kts - Descent Rate: 1500ft/min - Descent Speed: 250kts Options: - Use NATs: yes - Use PACOTS: yes - Use low airways: yes - Use high airways: yes

Route

CYRA EBGUT CYZF

ID Type Via Altitude Latitude Longitude Leg Dist Tot Dist Heading (true) Name
O CYRA APT - 0 ft / 0 m 64.11601˚ -117.30983˚ - 0 nm - Rae Lakes
EBGUT FIX - 13,100 ft / 3,993 m 63.48806˚ -114.51389˚ 83 nm 83 nm 116° / 118° -
O CYZF APT - 0 ft / 0 m 62.46567˚ -114.44142˚ 61 nm 144 nm 178° / 178° YELLOWKNIFE

Altitude Profile

Advertisement - Login to hide

CYRA

Details ICAO CYRA (YRA)
Name Rae Lakes
Region Canada
Timezone America/Yellowknife (UTC-6.0)
Stats Elevation 757 ft / 231 m (AMSL)
Location 64.116013° -117.309831°
Runways 1
Magnetic Variation 18.159° E

METAR

CYRA 201400Z 03005KT 15SM SKC 03/M05 A3003 RMK 8.3/ -0.7/ 0.0 SLP182

Decode

TAF

Not found

Departure Runways

ID Width Length Bearing (true) Bearing (mag) Surface Threshold Offset Overrun Length
14 98 ft / 30 m 3,226 ft / 983 m 136.53° 118.37° Dirt 0 ft / 0 m 0 ft / 0 m
32 98 ft / 30 m 3,226 ft / 983 m 316.54° 298.38° Dirt 0 ft / 0 m 0 ft / 0 m

CYZF

Details ICAO CYZF (YZF)
Name YELLOWKNIFE
Region Canada
Timezone America/Yellowknife (UTC-6.0)
Stats Elevation 675 ft / 206 m (AMSL)
Location 62.465666° -114.441417°
Runways 2
Magnetic Variation 16.457° E

METAR

CYZF 201400Z 06011KT 15SM BKN140 04/M04 A2994 RMK AC7 VIRGA N SLP151

Decode

TAF

TAF CYZF 201138Z 2012/2112 06012KT P6SM SCT120 BECMG 2013/2015 08015G25KT FM202100 09015G25KT P6SM SCT080 TEMPO 2021/2106 BKN080 RMK NXT FCST BY 201800Z

Decode

Destination Runways

ID Width Length Bearing (true) Bearing (mag) Surface Threshold Offset Overrun Length
09 150 ft / 46 m 4,902 ft / 1,494 m 116.52° 100.06° Asphalt 0 ft / 0 m 0 ft / 0 m
15 150 ft / 46 m 7,441 ft / 2,268 m 175.66° 159.20° Asphalt 0 ft / 0 m 0 ft / 0 m
27 150 ft / 46 m 4,902 ft / 1,494 m 296.54° 280.08° Asphalt 0 ft / 0 m 0 ft / 0 m
33 150 ft / 46 m 7,441 ft / 2,268 m 355.67° 339.21° Asphalt 0 ft / 0 m 0 ft / 0 m

Approach Navaids

Runway Type Ident Frequency Range Bearing (true) Bearing (mag) Slope Elevation
33 Localiser IZF 109.50 MHz 18 nm / 33 km 355.67° 339.21° - 675 ft / 206 m (AMSL)
33 Glidescope IZF 109.50 MHz 10 nm / 19 km 355.67° 339.21° 3.00° 675 ft / 206 m (AMSL)